sensor_id;sensor_type;location;lat;lon;timestamp;P1;durP1;ratioP1;P2;durP2;ratioP2
6985;SDS011;3533;51.246;6.850;2022-07-22T00:02:23;5.90;;;2.17;;
6985;SDS011;3533;51.246;6.850;2022-07-22T00:04:49;2.03;;;1.83;;
6985;SDS011;3533;51.246;6.850;2022-07-22T00:07:15;2.50;;;2.20;;
6985;SDS011;3533;51.246;6.850;2022-07-22T00:09:41;1.77;;;1.67;;
6985;SDS011;3533;51.246;6.850;2022-07-22T00:12:07;1.80;;;1.70;;
6985;SDS011;3533;51.246;6.850;2022-07-22T00:14:32;2.00;;;1.90;;
6985;SDS011;3533;51.246;6.850;2022-07-22T00:16:58;2.80;;;2.10;;
6985;SDS011;3533;51.246;6.850;2022-07-22T00:19:24;1.93;;;1.60;;
6985;SDS011;3533;51.246;6.850;2022-07-22T00:21:53;3.20;;;1.83;;
6985;SDS011;3533;51.246;6.850;2022-07-22T00:24:20;1.80;;;1.70;;
6985;SDS011;3533;51.246;6.850;2022-07-22T00:26:46;1.70;;;1.60;;
6985;SDS011;3533;51.246;6.850;2022-07-22T00:29:13;2.77;;;2.57;;
6985;SDS011;3533;51.246;6.850;2022-07-22T00:31:39;1.93;;;1.83;;
6985;SDS011;3533;51.246;6.850;2022-07-22T00:34:05;1.97;;;1.77;;
6985;SDS011;3533;51.246;6.850;2022-07-22T00:36:30;2.00;;;1.90;;
6985;SDS011;3533;51.246;6.850;2022-07-22T00:38:57;2.00;;;1.90;;
6985;SDS011;3533;51.246;6.850;2022-07-22T00:41:24;2.03;;;1.93;;
6985;SDS011;3533;51.246;6.850;2022-07-22T00:43:56;2.23;;;2.00;;
6985;SDS011;3533;51.246;6.850;2022-07-22T00:46:25;1.90;;;1.80;;
6985;SDS011;3533;51.246;6.850;2022-07-22T00:48:52;1.73;;;1.63;;
6985;SDS011;3533;51.246;6.850;2022-07-22T00:51:19;1.93;;;1.83;;
6985;SDS011;3533;51.246;6.850;2022-07-22T00:53:46;1.80;;;1.70;;
6985;SDS011;3533;51.246;6.850;2022-07-22T00:56:14;2.23;;;2.13;;
6985;SDS011;3533;51.246;6.850;2022-07-22T00:58:41;1.77;;;1.67;;
6985;SDS011;3533;51.246;6.850;2022-07-22T01:01:07;2.10;;;2.00;;
6985;SDS011;3533;51.246;6.850;2022-07-22T01:03:32;2.40;;;2.10;;
6985;SDS011;3533;51.246;6.850;2022-07-22T01:05:58;2.20;;;2.10;;
6985;SDS011;3533;51.246;6.850;2022-07-22T01:08:25;1.90;;;1.80;;
6985;SDS011;3533;51.246;6.850;2022-07-22T01:10:51;1.87;;;1.77;;
6985;SDS011;3533;51.246;6.850;2022-07-22T01:13:17;2.10;;;2.00;;
6985;SDS011;3533;51.246;6.850;2022-07-22T01:15:42;1.90;;;1.80;;
6985;SDS011;3533;51.246;6.850;2022-07-22T01:18:08;2.00;;;1.90;;
6985;SDS011;3533;51.246;6.850;2022-07-22T01:20:35;1.90;;;1.80;;
6985;SDS011;3533;51.246;6.850;2022-07-22T01:23:00;1.87;;;1.77;;
6985;SDS011;3533;51.246;6.850;2022-07-22T01:25:27;3.47;;;2.10;;
6985;SDS011;3533;51.246;6.850;2022-07-22T01:27:53;2.00;;;1.90;;
6985;SDS011;3533;51.246;6.850;2022-07-22T01:30:19;1.97;;;1.87;;
6985;SDS011;3533;51.246;6.850;2022-07-22T01:32:45;1.87;;;1.77;;
6985;SDS011;3533;51.246;6.850;2022-07-22T01:35:11;1.90;;;1.80;;
6985;SDS011;3533;51.246;6.850;2022-07-22T01:37:39;2.00;;;1.90;;
6985;SDS011;3533;51.246;6.850;2022-07-22T01:40:05;1.80;;;1.70;;
6985;SDS011;3533;51.246;6.850;2022-07-22T01:42:31;1.80;;;1.70;;
6985;SDS011;3533;51.246;6.850;2022-07-22T01:44:57;1.87;;;1.77;;
6985;SDS011;3533;51.246;6.850;2022-07-22T01:47:23;1.93;;;1.83;;
6985;SDS011;3533;51.246;6.850;2022-07-22T01:49:49;1.80;;;1.70;;
6985;SDS011;3533;51.246;6.850;2022-07-22T01:52:18;1.83;;;1.73;;
6985;SDS011;3533;51.246;6.850;2022-07-22T01:54:45;2.00;;;1.90;;
6985;SDS011;3533;51.246;6.850;2022-07-22T01:57:10;2.10;;;2.00;;
6985;SDS011;3533;51.246;6.850;2022-07-22T01:59:36;1.80;;;1.70;;
6985;SDS011;3533;51.246;6.850;2022-07-22T02:02:01;1.80;;;1.70;;
6985;SDS011;3533;51.246;6.850;2022-07-22T02:04:27;1.90;;;1.80;;
6985;SDS011;3533;51.246;6.850;2022-07-22T02:06:53;1.70;;;1.60;;
6985;SDS011;3533;51.246;6.850;2022-07-22T02:09:18;2.17;;;1.83;;
6985;SDS011;3533;51.246;6.850;2022-07-22T02:11:44;1.80;;;1.70;;
6985;SDS011;3533;51.246;6.850;2022-07-22T02:14:10;1.77;;;1.67;;
6985;SDS011;3533;51.246;6.850;2022-07-22T02:16:35;1.90;;;1.80;;
6985;SDS011;3533;51.246;6.850;2022-07-22T02:19:01;1.90;;;1.80;;
6985;SDS011;3533;51.246;6.850;2022-07-22T02:21:26;1.60;;;1.50;;
6985;SDS011;3533;51.246;6.850;2022-07-22T02:23:52;2.03;;;1.93;;
6985;SDS011;3533;51.246;6.850;2022-07-22T02:26:18;1.80;;;1.70;;
6985;SDS011;3533;51.246;6.850;2022-07-22T02:28:44;1.83;;;1.73;;
6985;SDS011;3533;51.246;6.850;2022-07-22T02:31:10;1.80;;;1.70;;
6985;SDS011;3533;51.246;6.850;2022-07-22T02:33:36;1.90;;;1.80;;
6985;SDS011;3533;51.246;6.850;2022-07-22T02:36:01;1.73;;;1.63;;
6985;SDS011;3533;51.246;6.850;2022-07-22T02:38:27;2.10;;;2.00;;
6985;SDS011;3533;51.246;6.850;2022-07-22T02:40:53;1.80;;;1.70;;
6985;SDS011;3533;51.246;6.850;2022-07-22T02:43:20;1.80;;;1.70;;
6985;SDS011;3533;51.246;6.850;2022-07-22T02:45:46;1.90;;;1.80;;
6985;SDS011;3533;51.246;6.850;2022-07-22T02:48:11;1.90;;;1.80;;
6985;SDS011;3533;51.246;6.850;2022-07-22T02:50:38;1.93;;;1.83;;
6985;SDS011;3533;51.246;6.850;2022-07-22T02:53:09;1.87;;;1.77;;
6985;SDS011;3533;51.246;6.850;2022-07-22T02:55:35;2.10;;;2.00;;
6985;SDS011;3533;51.246;6.850;2022-07-22T02:58:04;2.00;;;1.90;;
6985;SDS011;3533;51.246;6.850;2022-07-22T03:00:31;2.10;;;2.00;;
6985;SDS011;3533;51.246;6.850;2022-07-22T03:02:57;1.87;;;1.77;;
6985;SDS011;3533;51.246;6.850;2022-07-22T03:05:23;1.80;;;1.70;;
6985;SDS011;3533;51.246;6.850;2022-07-22T03:07:48;1.87;;;1.77;;
6985;SDS011;3533;51.246;6.850;2022-07-22T03:10:14;1.80;;;1.70;;
6985;SDS011;3533;51.246;6.850;2022-07-22T03:12:39;2.10;;;2.00;;
6985;SDS011;3533;51.246;6.850;2022-07-22T03:15:05;2.00;;;1.90;;
6985;SDS011;3533;51.246;6.850;2022-07-22T03:17:35;1.90;;;1.80;;
6985;SDS011;3533;51.246;6.850;2022-07-22T03:20:04;2.00;;;1.90;;
6985;SDS011;3533;51.246;6.850;2022-07-22T03:22:31;2.00;;;1.90;;
6985;SDS011;3533;51.246;6.850;2022-07-22T03:24:57;1.90;;;1.80;;
6985;SDS011;3533;51.246;6.850;2022-07-22T03:27:23;1.70;;;1.60;;
6985;SDS011;3533;51.246;6.850;2022-07-22T03:29:48;2.20;;;2.10;;
6985;SDS011;3533;51.246;6.850;2022-07-22T03:32:14;1.53;;;1.43;;
6985;SDS011;3533;51.246;6.850;2022-07-22T03:34:40;1.73;;;1.63;;
6985;SDS011;3533;51.246;6.850;2022-07-22T03:37:06;2.00;;;1.90;;
6985;SDS011;3533;51.246;6.850;2022-07-22T03:39:31;1.70;;;1.60;;
6985;SDS011;3533;51.246;6.850;2022-07-22T03:41:57;1.70;;;1.60;;
6985;SDS011;3533;51.246;6.850;2022-07-22T03:44:23;1.70;;;1.60;;
6985;SDS011;3533;51.246;6.850;2022-07-22T03:46:49;1.70;;;1.60;;
6985;SDS011;3533;51.246;6.850;2022-07-22T03:49:15;1.70;;;1.60;;
6985;SDS011;3533;51.246;6.850;2022-07-22T03:51:41;1.93;;;1.83;;
6985;SDS011;3533;51.246;6.850;2022-07-22T03:54:07;1.60;;;1.50;;
6985;SDS011;3533;51.246;6.850;2022-07-22T03:56:33;1.70;;;1.60;;
6985;SDS011;3533;51.246;6.850;2022-07-22T03:58:59;1.67;;;1.57;;
6985;SDS011;3533;51.246;6.850;2022-07-22T04:01:25;1.70;;;1.60;;
6985;SDS011;3533;51.246;6.850;2022-07-22T04:03:50;1.83;;;1.70;;
6985;SDS011;3533;51.246;6.850;2022-07-22T04:06:16;2.03;;;1.93;;
6985;SDS011;3533;51.246;6.850;2022-07-22T04:08:42;2.07;;;1.97;;
6985;SDS011;3533;51.246;6.850;2022-07-22T04:11:08;2.10;;;1.90;;
6985;SDS011;3533;51.246;6.850;2022-07-22T04:13:33;1.70;;;1.60;;
6985;SDS011;3533;51.246;6.850;2022-07-22T04:15:59;2.03;;;1.93;;
6985;SDS011;3533;51.246;6.850;2022-07-22T04:18:25;1.80;;;1.70;;
6985;SDS011;3533;51.246;6.850;2022-07-22T04:20:51;1.90;;;1.80;;
6985;SDS011;3533;51.246;6.850;2022-07-22T04:23:16;1.90;;;1.80;;
6985;SDS011;3533;51.246;6.850;2022-07-22T04:25:42;1.70;;;1.60;;
6985;SDS011;3533;51.246;6.850;2022-07-22T04:28:08;1.80;;;1.70;;
6985;SDS011;3533;51.246;6.850;2022-07-22T04:30:33;1.80;;;1.70;;
6985;SDS011;3533;51.246;6.850;2022-07-22T04:32:59;1.77;;;1.67;;
6985;SDS011;3533;51.246;6.850;2022-07-22T04:35:25;1.70;;;1.60;;
6985;SDS011;3533;51.246;6.850;2022-07-22T04:37:51;1.60;;;1.50;;
6985;SDS011;3533;51.246;6.850;2022-07-22T04:40:16;1.70;;;1.60;;
6985;SDS011;3533;51.246;6.850;2022-07-22T04:42:42;1.93;;;1.83;;
6985;SDS011;3533;51.246;6.850;2022-07-22T04:45:08;1.60;;;1.50;;
6985;SDS011;3533;51.246;6.850;2022-07-22T04:47:34;1.77;;;1.67;;
6985;SDS011;3533;51.246;6.850;2022-07-22T04:49:59;2.27;;;2.07;;
6985;SDS011;3533;51.246;6.850;2022-07-22T04:52:25;1.70;;;1.60;;
6985;SDS011;3533;51.246;6.850;2022-07-22T04:54:51;1.90;;;1.80;;
6985;SDS011;3533;51.246;6.850;2022-07-22T04:57:17;1.67;;;1.57;;
6985;SDS011;3533;51.246;6.850;2022-07-22T04:59:43;2.00;;;1.90;;
6985;SDS011;3533;51.246;6.850;2022-07-22T05:02:09;1.60;;;1.50;;
6985;SDS011;3533;51.246;6.850;2022-07-22T05:04:34;2.00;;;1.90;;
6985;SDS011;3533;51.246;6.850;2022-07-22T05:07:00;1.97;;;1.50;;
6985;SDS011;3533;51.246;6.850;2022-07-22T05:09:28;1.60;;;1.50;;
6985;SDS011;3533;51.246;6.850;2022-07-22T05:11:54;1.70;;;1.60;;
6985;SDS011;3533;51.246;6.850;2022-07-22T05:14:19;1.63;;;1.53;;
6985;SDS011;3533;51.246;6.850;2022-07-22T05:16:45;1.73;;;1.63;;
6985;SDS011;3533;51.246;6.850;2022-07-22T05:19:11;2.30;;;1.60;;
6985;SDS011;3533;51.246;6.850;2022-07-22T05:21:36;1.70;;;1.60;;
6985;SDS011;3533;51.246;6.850;2022-07-22T05:24:02;1.50;;;1.40;;
6985;SDS011;3533;51.246;6.850;2022-07-22T05:26:28;1.50;;;1.40;;
6985;SDS011;3533;51.246;6.850;2022-07-22T05:28:56;1.80;;;1.70;;
6985;SDS011;3533;51.246;6.850;2022-07-22T05:31:21;1.60;;;1.50;;
6985;SDS011;3533;51.246;6.850;2022-07-22T05:33:47;1.40;;;1.30;;
6985;SDS011;3533;51.246;6.850;2022-07-22T05:36:12;1.60;;;1.50;;
6985;SDS011;3533;51.246;6.850;2022-07-22T05:38:38;1.57;;;1.47;;
6985;SDS011;3533;51.246;6.850;2022-07-22T05:41:04;1.80;;;1.70;;
6985;SDS011;3533;51.246;6.850;2022-07-22T05:43:30;1.73;;;1.30;;
6985;SDS011;3533;51.246;6.850;2022-07-22T05:45:56;1.50;;;1.40;;
6985;SDS011;3533;51.246;6.850;2022-07-22T05:48:22;1.57;;;1.47;;
6985;SDS011;3533;51.246;6.850;2022-07-22T05:50:48;1.67;;;1.57;;
6985;SDS011;3533;51.246;6.850;2022-07-22T05:53:14;1.53;;;1.43;;
6985;SDS011;3533;51.246;6.850;2022-07-22T05:55:39;1.60;;;1.50;;
6985;SDS011;3533;51.246;6.850;2022-07-22T05:58:05;1.67;;;1.57;;
6985;SDS011;3533;51.246;6.850;2022-07-22T06:00:31;1.60;;;1.50;;
6985;SDS011;3533;51.246;6.850;2022-07-22T06:02:57;1.60;;;1.50;;
6985;SDS011;3533;51.246;6.850;2022-07-22T06:05:24;1.63;;;1.53;;
6985;SDS011;3533;51.246;6.850;2022-07-22T06:07:50;1.60;;;1.50;;
6985;SDS011;3533;51.246;6.850;2022-07-22T06:10:16;1.60;;;1.50;;
6985;SDS011;3533;51.246;6.850;2022-07-22T06:12:41;1.50;;;1.40;;
6985;SDS011;3533;51.246;6.850;2022-07-22T06:15:07;1.90;;;1.80;;
6985;SDS011;3533;51.246;6.850;2022-07-22T06:17:34;1.47;;;1.37;;
6985;SDS011;3533;51.246;6.850;2022-07-22T06:19:59;1.50;;;1.40;;
6985;SDS011;3533;51.246;6.850;2022-07-22T06:22:26;1.80;;;1.70;;
6985;SDS011;3533;51.246;6.850;2022-07-22T06:24:51;1.70;;;1.40;;
6985;SDS011;3533;51.246;6.850;2022-07-22T06:27:18;1.70;;;1.60;;
6985;SDS011;3533;51.246;6.850;2022-07-22T06:29:44;1.53;;;1.43;;
6985;SDS011;3533;51.246;6.850;2022-07-22T06:32:09;1.50;;;1.40;;
6985;SDS011;3533;51.246;6.850;2022-07-22T06:34:35;1.33;;;1.23;;
6985;SDS011;3533;51.246;6.850;2022-07-22T06:37:01;1.70;;;1.60;;
6985;SDS011;3533;51.246;6.850;2022-07-22T06:39:27;1.60;;;1.50;;
6985;SDS011;3533;51.246;6.850;2022-07-22T06:41:53;1.57;;;1.47;;
6985;SDS011;3533;51.246;6.850;2022-07-22T06:44:19;1.63;;;1.53;;
6985;SDS011;3533;51.246;6.850;2022-07-22T06:46:45;1.50;;;1.40;;
6985;SDS011;3533;51.246;6.850;2022-07-22T06:49:10;1.53;;;1.43;;
6985;SDS011;3533;51.246;6.850;2022-07-22T06:51:36;1.43;;;1.33;;
6985;SDS011;3533;51.246;6.850;2022-07-22T06:54:02;1.40;;;1.30;;
6985;SDS011;3533;51.246;6.850;2022-07-22T06:56:27;1.50;;;1.40;;
6985;SDS011;3533;51.246;6.850;2022-07-22T06:58:53;1.50;;;1.40;;
6985;SDS011;3533;51.246;6.850;2022-07-22T07:01:19;1.60;;;1.50;;
6985;SDS011;3533;51.246;6.850;2022-07-22T07:03:46;1.47;;;1.37;;
6985;SDS011;3533;51.246;6.850;2022-07-22T07:06:11;1.40;;;1.30;;
6985;SDS011;3533;51.246;6.850;2022-07-22T07:08:38;1.73;;;1.40;;
6985;SDS011;3533;51.246;6.850;2022-07-22T07:11:04;1.60;;;1.50;;
6985;SDS011;3533;51.246;6.850;2022-07-22T07:13:30;1.30;;;1.20;;
6985;SDS011;3533;51.246;6.850;2022-07-22T07:15:56;1.50;;;1.40;;
6985;SDS011;3533;51.246;6.850;2022-07-22T07:18:22;1.40;;;1.30;;
6985;SDS011;3533;51.246;6.850;2022-07-22T07:20:48;1.40;;;1.30;;
6985;SDS011;3533;51.246;6.850;2022-07-22T07:23:13;1.80;;;1.70;;
6985;SDS011;3533;51.246;6.850;2022-07-22T07:25:39;1.50;;;1.40;;
6985;SDS011;3533;51.246;6.850;2022-07-22T07:28:05;1.50;;;1.40;;
6985;SDS011;3533;51.246;6.850;2022-07-22T07:30:31;1.50;;;1.40;;
6985;SDS011;3533;51.246;6.850;2022-07-22T07:32:57;1.97;;;1.77;;
6985;SDS011;3533;51.246;6.850;2022-07-22T07:35:25;1.63;;;1.53;;
6985;SDS011;3533;51.246;6.850;2022-07-22T07:37:51;1.70;;;1.60;;
6985;SDS011;3533;51.246;6.850;2022-07-22T07:40:16;1.60;;;1.50;;
6985;SDS011;3533;51.246;6.850;2022-07-22T07:42:42;1.70;;;1.60;;
6985;SDS011;3533;51.246;6.850;2022-07-22T07:45:07;2.00;;;1.90;;
6985;SDS011;3533;51.246;6.850;2022-07-22T07:47:33;1.30;;;1.20;;
6985;SDS011;3533;51.246;6.850;2022-07-22T07:49:59;2.20;;;2.00;;
6985;SDS011;3533;51.246;6.850;2022-07-22T07:52:28;1.80;;;1.70;;
6985;SDS011;3533;51.246;6.850;2022-07-22T07:54:54;1.43;;;1.33;;
6985;SDS011;3533;51.246;6.850;2022-07-22T07:57:20;2.10;;;1.63;;
6985;SDS011;3533;51.246;6.850;2022-07-22T07:59:46;1.50;;;1.40;;
6985;SDS011;3533;51.246;6.850;2022-07-22T08:02:12;2.40;;;2.30;;
6985;SDS011;3533;51.246;6.850;2022-07-22T08:04:38;2.00;;;1.90;;
6985;SDS011;3533;51.246;6.850;2022-07-22T08:07:05;1.90;;;1.70;;
6985;SDS011;3533;51.246;6.850;2022-07-22T08:09:32;1.80;;;1.70;;
6985;SDS011;3533;51.246;6.850;2022-07-22T08:12:00;1.93;;;1.83;;
6985;SDS011;3533;51.246;6.850;2022-07-22T08:14:26;1.83;;;1.73;;
6985;SDS011;3533;51.246;6.850;2022-07-22T08:16:51;1.97;;;1.87;;
6985;SDS011;3533;51.246;6.850;2022-07-22T08:19:17;1.80;;;1.70;;
6985;SDS011;3533;51.246;6.850;2022-07-22T08:21:43;1.70;;;1.60;;
6985;SDS011;3533;51.246;6.850;2022-07-22T08:24:09;2.20;;;2.10;;
6985;SDS011;3533;51.246;6.850;2022-07-22T08:26:35;1.80;;;1.70;;
6985;SDS011;3533;51.246;6.850;2022-07-22T08:29:01;2.00;;;1.90;;
6985;SDS011;3533;51.246;6.850;2022-07-22T08:31:28;1.83;;;1.73;;
6985;SDS011;3533;51.246;6.850;2022-07-22T08:33:54;1.90;;;1.80;;
6985;SDS011;3533;51.246;6.850;2022-07-22T08:36:19;1.73;;;1.63;;
6985;SDS011;3533;51.246;6.850;2022-07-22T08:38:45;2.00;;;1.90;;
6985;SDS011;3533;51.246;6.850;2022-07-22T08:41:11;1.90;;;1.80;;
6985;SDS011;3533;51.246;6.850;2022-07-22T08:43:39;1.83;;;1.73;;
6985;SDS011;3533;51.246;6.850;2022-07-22T08:46:07;1.67;;;1.57;;
6985;SDS011;3533;51.246;6.850;2022-07-22T08:48:33;1.93;;;1.83;;
6985;SDS011;3533;51.246;6.850;2022-07-22T08:51:02;2.00;;;1.90;;
6985;SDS011;3533;51.246;6.850;2022-07-22T08:53:28;2.07;;;1.97;;
6985;SDS011;3533;51.246;6.850;2022-07-22T08:55:54;1.90;;;1.80;;
6985;SDS011;3533;51.246;6.850;2022-07-22T08:58:21;2.07;;;1.97;;
6985;SDS011;3533;51.246;6.850;2022-07-22T09:00:46;2.00;;;1.90;;
6985;SDS011;3533;51.246;6.850;2022-07-22T09:03:31;1.90;;;1.80;;
6985;SDS011;3533;51.246;6.850;2022-07-22T09:05:57;2.23;;;2.13;;
6985;SDS011;3533;51.246;6.850;2022-07-22T09:08:24;2.27;;;2.17;;
6985;SDS011;3533;51.246;6.850;2022-07-22T09:10:50;1.83;;;1.73;;
6985;SDS011;3533;51.246;6.850;2022-07-22T09:13:16;2.37;;;2.27;;
6985;SDS011;3533;51.246;6.850;2022-07-22T09:15:47;2.00;;;1.90;;
6985;SDS011;3533;51.246;6.850;2022-07-22T09:18:14;2.10;;;2.00;;
6985;SDS011;3533;51.246;6.850;2022-07-22T09:20:41;2.23;;;2.13;;
6985;SDS011;3533;51.246;6.850;2022-07-22T09:23:16;2.10;;;2.00;;
6985;SDS011;3533;51.246;6.850;2022-07-22T09:25:46;2.00;;;1.90;;
6985;SDS011;3533;51.246;6.850;2022-07-22T09:28:14;2.10;;;2.00;;
6985;SDS011;3533;51.246;6.850;2022-07-22T09:30:51;2.10;;;2.00;;
6985;SDS011;3533;51.246;6.850;2022-07-22T09:33:19;2.03;;;1.93;;
6985;SDS011;3533;51.246;6.850;2022-07-22T09:35:45;2.00;;;1.90;;
6985;SDS011;3533;51.246;6.850;2022-07-22T09:38:13;2.10;;;2.00;;
6985;SDS011;3533;51.246;6.850;2022-07-22T09:40:40;2.57;;;2.40;;
6985;SDS011;3533;51.246;6.850;2022-07-22T09:43:15;2.40;;;2.30;;
6985;SDS011;3533;51.246;6.850;2022-07-22T09:45:49;2.10;;;1.90;;
6985;SDS011;3533;51.246;6.850;2022-07-22T09:48:17;1.80;;;1.70;;
6985;SDS011;3533;51.246;6.850;2022-07-22T09:50:47;2.30;;;2.20;;
6985;SDS011;3533;51.246;6.850;2022-07-22T09:53:15;2.60;;;2.40;;
6985;SDS011;3533;51.246;6.850;2022-07-22T09:55:41;2.10;;;2.00;;
6985;SDS011;3533;51.246;6.850;2022-07-22T09:58:07;2.47;;;2.27;;
6985;SDS011;3533;51.246;6.850;2022-07-22T10:00:33;2.10;;;2.00;;
6985;SDS011;3533;51.246;6.850;2022-07-22T10:03:00;2.53;;;2.40;;
6985;SDS011;3533;51.246;6.850;2022-07-22T10:05:28;2.77;;;2.57;;
6985;SDS011;3533;51.246;6.850;2022-07-22T10:07:56;2.90;;;2.70;;
6985;SDS011;3533;51.246;6.850;2022-07-22T10:10:24;2.50;;;2.40;;
6985;SDS011;3533;51.246;6.850;2022-07-22T10:12:52;2.60;;;2.50;;
6985;SDS011;3533;51.246;6.850;2022-07-22T10:15:20;2.17;;;2.07;;
6985;SDS011;3533;51.246;6.850;2022-07-22T10:17:47;2.20;;;2.10;;
6985;SDS011;3533;51.246;6.850;2022-07-22T10:20:16;2.33;;;2.23;;
6985;SDS011;3533;51.246;6.850;2022-07-22T10:22:44;2.47;;;2.30;;
6985;SDS011;3533;51.246;6.850;2022-07-22T10:25:22;2.47;;;2.37;;
6985;SDS011;3533;51.246;6.850;2022-07-22T10:30:23;2.37;;;2.27;;
6985;SDS011;3533;51.246;6.850;2022-07-22T10:35:37;2.67;;;2.47;;
6985;SDS011;3533;51.246;6.850;2022-07-22T10:38:18;2.87;;;2.67;;
6985;SDS011;3533;51.246;6.850;2022-07-22T10:40:50;2.87;;;2.67;;
6985;SDS011;3533;51.246;6.850;2022-07-22T10:43:24;2.87;;;2.67;;
6985;SDS011;3533;51.246;6.850;2022-07-22T10:51:08;2.67;;;2.47;;
6985;SDS011;3533;51.246;6.850;2022-07-22T11:01:35;3.10;;;2.90;;
6985;SDS011;3533;51.246;6.850;2022-07-22T11:06:36;2.73;;;2.60;;
6985;SDS011;3533;51.246;6.850;2022-07-22T11:09:03;2.70;;;2.50;;
6985;SDS011;3533;51.246;6.850;2022-07-22T11:11:33;3.20;;;3.00;;
6985;SDS011;3533;51.246;6.850;2022-07-22T11:14:03;3.23;;;3.03;;
6985;SDS011;3533;51.246;6.850;2022-07-22T11:16:36;3.17;;;2.97;;
6985;SDS011;3533;51.246;6.850;2022-07-22T11:19:02;3.10;;;2.90;;
6985;SDS011;3533;51.246;6.850;2022-07-22T11:21:28;3.20;;;3.00;;
6985;SDS011;3533;51.246;6.850;2022-07-22T11:23:56;3.13;;;2.93;;
6985;SDS011;3533;51.246;6.850;2022-07-22T11:28:58;3.23;;;3.03;;
6985;SDS011;3533;51.246;6.850;2022-07-22T11:31:26;2.83;;;2.63;;
6985;SDS011;3533;51.246;6.850;2022-07-22T11:33:52;3.10;;;2.90;;
6985;SDS011;3533;51.246;6.850;2022-07-22T11:36:38;2.90;;;2.70;;
6985;SDS011;3533;51.246;6.850;2022-07-22T11:39:06;3.20;;;3.00;;
6985;SDS011;3533;51.246;6.850;2022-07-22T11:41:33;3.30;;;3.10;;
6985;SDS011;3533;51.246;6.850;2022-07-22T11:44:00;2.63;;;2.53;;
6985;SDS011;3533;51.246;6.850;2022-07-22T11:46:26;3.20;;;3.00;;
6985;SDS011;3533;51.246;6.850;2022-07-22T11:48:53;3.40;;;3.20;;
6985;SDS011;3533;51.246;6.850;2022-07-22T11:51:26;3.50;;;3.30;;
6985;SDS011;3533;51.246;6.850;2022-07-22T11:53:55;3.70;;;3.50;;
6985;SDS011;3533;51.246;6.850;2022-07-22T11:56:22;3.53;;;3.33;;
6985;SDS011;3533;51.246;6.850;2022-07-22T11:58:49;3.50;;;3.30;;
6985;SDS011;3533;51.246;6.850;2022-07-22T12:01:16;3.60;;;3.40;;
6985;SDS011;3533;51.246;6.850;2022-07-22T12:03:47;3.80;;;3.60;;
6985;SDS011;3533;51.246;6.850;2022-07-22T12:06:18;3.50;;;3.30;;
6985;SDS011;3533;51.246;6.850;2022-07-22T12:09:05;3.43;;;3.23;;
6985;SDS011;3533;51.246;6.850;2022-07-22T12:11:34;3.83;;;3.60;;
6985;SDS011;3533;51.246;6.850;2022-07-22T12:14:08;4.00;;;3.70;;
6985;SDS011;3533;51.246;6.850;2022-07-22T12:16:42;4.00;;;3.80;;
6985;SDS011;3533;51.246;6.850;2022-07-22T12:19:10;4.17;;;3.87;;
6985;SDS011;3533;51.246;6.850;2022-07-22T12:21:58;3.70;;;3.50;;
6985;SDS011;3533;51.246;6.850;2022-07-22T12:24:27;4.13;;;3.80;;
6985;SDS011;3533;51.246;6.850;2022-07-22T12:27:00;3.43;;;3.23;;
6985;SDS011;3533;51.246;6.850;2022-07-22T12:29:40;4.20;;;3.93;;
6985;SDS011;3533;51.246;6.850;2022-07-22T12:32:09;3.73;;;3.53;;
6985;SDS011;3533;51.246;6.850;2022-07-22T12:34:59;4.27;;;3.97;;
6985;SDS011;3533;51.246;6.850;2022-07-22T12:37:27;4.60;;;4.30;;
6985;SDS011;3533;51.246;6.850;2022-07-22T12:40:05;3.97;;;3.67;;
6985;SDS011;3533;51.246;6.850;2022-07-22T12:42:36;3.90;;;3.60;;
6985;SDS011;3533;51.246;6.850;2022-07-22T12:45:08;4.07;;;3.87;;
6985;SDS011;3533;51.246;6.850;2022-07-22T12:50:31;4.07;;;3.87;;
6985;SDS011;3533;51.246;6.850;2022-07-22T12:52:58;3.90;;;3.70;;
6985;SDS011;3533;51.246;6.850;2022-07-22T12:55:34;4.03;;;3.70;;
6985;SDS011;3533;51.246;6.850;2022-07-22T12:58:05;4.07;;;3.77;;
6985;SDS011;3533;51.246;6.850;2022-07-22T13:00:33;4.10;;;3.80;;
6985;SDS011;3533;51.246;6.850;2022-07-22T13:03:01;4.30;;;4.00;;
6985;SDS011;3533;51.246;6.850;2022-07-22T13:05:26;4.47;;;4.17;;
6985;SDS011;3533;51.246;6.850;2022-07-22T13:07:53;4.03;;;3.73;;
6985;SDS011;3533;51.246;6.850;2022-07-22T13:10:20;3.97;;;3.77;;
6985;SDS011;3533;51.246;6.850;2022-07-22T13:12:47;5.93;;;4.23;;
6985;SDS011;3533;51.246;6.850;2022-07-22T13:15:13;4.10;;;3.90;;
6985;SDS011;3533;51.246;6.850;2022-07-22T13:17:40;3.87;;;3.67;;
6985;SDS011;3533;51.246;6.850;2022-07-22T13:20:06;4.40;;;4.10;;
6985;SDS011;3533;51.246;6.850;2022-07-22T13:22:33;4.83;;;4.50;;
6985;SDS011;3533;51.246;6.850;2022-07-22T13:24:59;4.63;;;4.33;;
6985;SDS011;3533;51.246;6.850;2022-07-22T13:27:26;4.43;;;4.23;;
6985;SDS011;3533;51.246;6.850;2022-07-22T13:29:52;4.40;;;4.10;;
6985;SDS011;3533;51.246;6.850;2022-07-22T13:32:18;4.70;;;4.40;;
6985;SDS011;3533;51.246;6.850;2022-07-22T13:34:43;4.30;;;4.00;;
6985;SDS011;3533;51.246;6.850;2022-07-22T13:37:09;4.40;;;4.10;;
6985;SDS011;3533;51.246;6.850;2022-07-22T13:39:35;4.60;;;4.30;;
6985;SDS011;3533;51.246;6.850;2022-07-22T13:42:01;4.17;;;3.97;;
6985;SDS011;3533;51.246;6.850;2022-07-22T13:44:28;4.10;;;3.90;;
6985;SDS011;3533;51.246;6.850;2022-07-22T13:46:55;4.40;;;4.10;;
6985;SDS011;3533;51.246;6.850;2022-07-22T13:49:24;4.50;;;4.20;;
6985;SDS011;3533;51.246;6.850;2022-07-22T13:51:50;4.60;;;4.30;;
6985;SDS011;3533;51.246;6.850;2022-07-22T13:54:17;4.83;;;4.53;;
6985;SDS011;3533;51.246;6.850;2022-07-22T13:56:43;4.47;;;4.17;;
6985;SDS011;3533;51.246;6.850;2022-07-22T13:59:12;5.00;;;4.60;;
6985;SDS011;3533;51.246;6.850;2022-07-22T14:01:38;4.13;;;3.93;;
6985;SDS011;3533;51.246;6.850;2022-07-22T14:04:04;4.43;;;4.23;;
6985;SDS011;3533;51.246;6.850;2022-07-22T14:06:31;4.80;;;4.50;;
6985;SDS011;3533;51.246;6.850;2022-07-22T14:09:00;5.50;;;5.10;;
6985;SDS011;3533;51.246;6.850;2022-07-22T14:11:26;4.50;;;4.20;;
6985;SDS011;3533;51.246;6.850;2022-07-22T14:13:52;4.93;;;4.63;;
6985;SDS011;3533;51.246;6.850;2022-07-22T14:16:17;4.83;;;4.53;;
6985;SDS011;3533;51.246;6.850;2022-07-22T14:18:59;5.33;;;4.83;;
6985;SDS011;3533;51.246;6.850;2022-07-22T14:21:35;5.10;;;4.80;;
6985;SDS011;3533;51.246;6.850;2022-07-22T14:24:03;4.60;;;4.40;;
6985;SDS011;3533;51.246;6.850;2022-07-22T14:26:30;5.37;;;5.07;;
6985;SDS011;3533;51.246;6.850;2022-07-22T14:28:56;5.17;;;4.87;;
6985;SDS011;3533;51.246;6.850;2022-07-22T14:31:22;4.50;;;4.20;;
6985;SDS011;3533;51.246;6.850;2022-07-22T14:33:48;5.67;;;5.27;;
6985;SDS011;3533;51.246;6.850;2022-07-22T14:36:14;5.10;;;4.77;;
6985;SDS011;3533;51.246;6.850;2022-07-22T14:38:40;4.90;;;4.60;;
6985;SDS011;3533;51.246;6.850;2022-07-22T14:41:06;4.10;;;3.87;;
6985;SDS011;3533;51.246;6.850;2022-07-22T14:43:33;4.43;;;4.13;;
6985;SDS011;3533;51.246;6.850;2022-07-22T14:46:00;5.47;;;5.17;;
6985;SDS011;3533;51.246;6.850;2022-07-22T14:48:27;4.60;;;4.30;;
6985;SDS011;3533;51.246;6.850;2022-07-22T14:50:53;4.20;;;4.00;;
6985;SDS011;3533;51.246;6.850;2022-07-22T14:53:19;4.83;;;4.53;;
6985;SDS011;3533;51.246;6.850;2022-07-22T14:55:45;5.57;;;5.27;;
6985;SDS011;3533;51.246;6.850;2022-07-22T14:58:10;5.40;;;5.00;;
6985;SDS011;3533;51.246;6.850;2022-07-22T15:00:36;4.40;;;4.10;;
6985;SDS011;3533;51.246;6.850;2022-07-22T15:03:02;4.80;;;4.50;;
6985;SDS011;3533;51.246;6.850;2022-07-22T15:05:28;4.60;;;4.30;;
6985;SDS011;3533;51.246;6.850;2022-07-22T15:07:54;5.00;;;4.60;;
6985;SDS011;3533;51.246;6.850;2022-07-22T15:10:21;5.77;;;5.37;;
6985;SDS011;3533;51.246;6.850;2022-07-22T15:12:49;5.10;;;4.80;;
6985;SDS011;3533;51.246;6.850;2022-07-22T15:15:16;4.97;;;4.67;;
6985;SDS011;3533;51.246;6.850;2022-07-22T15:17:41;5.10;;;4.80;;
6985;SDS011;3533;51.246;6.850;2022-07-22T15:20:09;5.40;;;5.10;;
6985;SDS011;3533;51.246;6.850;2022-07-22T15:22:36;5.50;;;5.20;;
6985;SDS011;3533;51.246;6.850;2022-07-22T15:25:02;5.17;;;4.87;;
6985;SDS011;3533;51.246;6.850;2022-07-22T15:27:28;5.47;;;5.17;;
6985;SDS011;3533;51.246;6.850;2022-07-22T15:29:54;5.50;;;5.20;;
6985;SDS011;3533;51.246;6.850;2022-07-22T15:32:20;4.93;;;4.63;;
6985;SDS011;3533;51.246;6.850;2022-07-22T15:34:46;5.17;;;4.87;;
6985;SDS011;3533;51.246;6.850;2022-07-22T15:37:12;4.80;;;4.50;;
6985;SDS011;3533;51.246;6.850;2022-07-22T15:39:38;5.23;;;4.93;;
6985;SDS011;3533;51.246;6.850;2022-07-22T15:42:03;5.50;;;5.20;;